createdAt,value
2022-10-26T00:01:23.173Z,3.33
2022-10-26T00:03:51.559Z,3.43
2022-10-26T00:06:21.860Z,4.63
2022-10-26T00:08:50.584Z,5.50
2022-10-26T00:11:20.826Z,4.03
2022-10-26T00:13:49.748Z,3.93
2022-10-26T00:16:21.285Z,4.07
2022-10-26T00:18:50.181Z,3.20
2022-10-26T00:21:19.244Z,4.03
2022-10-26T00:23:47.545Z,3.07
2022-10-26T00:26:15.818Z,3.97
2022-10-26T00:28:45.810Z,3.33
2022-10-26T00:31:16.199Z,3.50
2022-10-26T00:33:44.659Z,3.70
2022-10-26T00:36:16.612Z,4.50
2022-10-26T00:38:49.109Z,4.10
2022-10-26T00:41:18.312Z,3.33
2022-10-26T00:43:48.206Z,3.20
2022-10-26T00:46:21.718Z,4.17
2022-10-26T00:48:54.847Z,4.83
2022-10-26T00:51:32.514Z,3.40
2022-10-26T00:54:05.268Z,3.93
2022-10-26T00:56:34.380Z,3.30
2022-10-26T00:59:07.932Z,4.20
2022-10-26T01:01:39.726Z,3.43
2022-10-26T01:04:08.453Z,4.20
2022-10-26T01:06:37.717Z,3.30
2022-10-26T01:09:06.685Z,3.30
2022-10-26T01:11:34.943Z,3.50
2022-10-26T01:14:09.508Z,3.20
2022-10-26T01:16:57.174Z,4.33
2022-10-26T01:20:03.252Z,3.80
2022-10-26T01:22:37.905Z,3.40
2022-10-26T01:25:17.973Z,3.60
2022-10-26T01:27:48.793Z,3.63
2022-10-26T01:30:31.222Z,4.00
2022-10-26T01:33:15.428Z,3.77
2022-10-26T01:35:52.597Z,3.17
2022-10-26T01:38:30.678Z,3.47
2022-10-26T01:41:06.326Z,3.10
2022-10-26T01:43:41.192Z,3.33
2022-10-26T01:46:12.224Z,3.10
2022-10-26T01:48:42.836Z,3.20
2022-10-26T01:51:13.204Z,3.87
2022-10-26T01:53:46.614Z,4.30
2022-10-26T01:56:20.712Z,3.37
2022-10-26T01:59:17.989Z,3.27
2022-10-26T02:02:24.348Z,3.53
2022-10-26T02:05:25.446Z,3.20
2022-10-26T02:08:05.000Z,3.73
2022-10-26T02:10:48.951Z,2.80
2022-10-26T02:13:26.459Z,3.53
2022-10-26T02:15:59.006Z,3.47
2022-10-26T02:18:33.413Z,3.43
2022-10-26T02:21:08.432Z,3.13
2022-10-26T02:23:40.591Z,3.37
2022-10-26T02:26:13.369Z,3.20
2022-10-26T02:28:46.276Z,2.97
2022-10-26T02:31:16.687Z,3.40
2022-10-26T02:33:50.655Z,3.73
2022-10-26T02:36:25.940Z,3.47
2022-10-26T02:38:55.534Z,2.57
2022-10-26T02:41:26.691Z,2.77
2022-10-26T02:44:01.504Z,2.50
2022-10-26T02:46:30.198Z,3.93
2022-10-26T02:49:00.268Z,3.30
2022-10-26T02:51:36.508Z,2.53
2022-10-26T02:54:15.560Z,3.47
2022-10-26T02:56:50.482Z,2.30
2022-10-26T02:59:22.093Z,3.23
2022-10-26T03:01:52.417Z,4.53
2022-10-26T03:04:22.157Z,3.50
2022-10-26T03:06:56.622Z,3.03
2022-10-26T03:09:25.687Z,3.03
2022-10-26T03:11:54.447Z,3.27
2022-10-26T03:14:22.603Z,3.40
2022-10-26T03:19:21.666Z,3.93
2022-10-26T03:21:49.930Z,3.80
2022-10-26T03:24:18.106Z,3.53
2022-10-26T03:26:46.291Z,3.70
2022-10-26T03:29:14.470Z,3.43
2022-10-26T03:31:42.648Z,4.03
2022-10-26T03:34:10.827Z,3.70
2022-10-26T03:36:40.362Z,3.43
2022-10-26T03:39:08.537Z,4.13
2022-10-26T03:41:36.713Z,4.30
2022-10-26T03:44:05.117Z,5.23
2022-10-26T03:46:33.330Z,4.43
2022-10-26T03:49:01.470Z,4.60
2022-10-26T03:51:29.653Z,4.80
2022-10-26T03:53:59.214Z,6.33
2022-10-26T03:56:27.377Z,4.73
2022-10-26T03:58:55.605Z,5.97
2022-10-26T04:01:24.082Z,5.33
2022-10-26T04:03:52.340Z,5.00
2022-10-26T04:06:23.178Z,6.33
2022-10-26T04:08:51.795Z,4.97
2022-10-26T04:11:21.411Z,5.07
2022-10-26T04:13:49.655Z,7.10
2022-10-26T04:16:17.866Z,5.07
2022-10-26T04:18:46.178Z,5.40
2022-10-26T04:21:14.534Z,4.80
2022-10-26T04:23:42.787Z,4.90
2022-10-26T04:26:11.018Z,4.90
2022-10-26T04:28:40.496Z,7.97
2022-10-26T04:31:08.671Z,4.20
2022-10-26T04:33:36.853Z,4.53
2022-10-26T04:36:05.377Z,4.53
2022-10-26T04:38:33.638Z,5.33
2022-10-26T04:41:01.884Z,4.87
2022-10-26T04:43:30.134Z,4.70
2022-10-26T04:46:00.185Z,4.43
2022-10-26T04:48:28.538Z,4.87
2022-10-26T04:51:00.190Z,4.73
2022-10-26T04:53:28.636Z,6.80
2022-10-26T04:56:00.890Z,5.50
2022-10-26T04:58:29.857Z,5.00
2022-10-26T05:00:59.943Z,5.20
2022-10-26T05:03:28.262Z,4.70
2022-10-26T05:06:00.348Z,4.50
2022-10-26T05:08:30.269Z,4.60
2022-10-26T05:10:58.755Z,4.20
2022-10-26T05:16:01.480Z,5.67
2022-10-26T05:18:29.714Z,4.13
2022-10-26T05:20:58.277Z,4.23
2022-10-26T05:23:26.644Z,5.10
2022-10-26T05:25:56.850Z,5.00
2022-10-26T05:28:25.227Z,4.47
2022-10-26T05:30:53.564Z,6.17
2022-10-26T05:33:23.231Z,4.43
2022-10-26T05:35:55.974Z,4.50
2022-10-26T05:38:24.219Z,4.10
2022-10-26T05:40:54.762Z,4.77
2022-10-26T05:43:24.929Z,5.50
2022-10-26T05:45:53.109Z,4.87
2022-10-26T05:48:23.229Z,5.60
2022-10-26T05:50:51.519Z,6.00
2022-10-26T05:53:19.835Z,4.87
2022-10-26T05:55:48.840Z,5.17
2022-10-26T05:58:17.799Z,4.90
2022-10-26T06:01:07.640Z,4.33
2022-10-26T06:03:53.133Z,4.53
2022-10-26T06:06:23.415Z,3.70
2022-10-26T06:08:52.398Z,4.40
2022-10-26T06:11:21.578Z,5.03
2022-10-26T06:13:51.467Z,5.83
2022-10-26T06:16:32.559Z,4.17
2022-10-26T06:19:16.379Z,4.30
2022-10-26T06:22:01.398Z,3.90
2022-10-26T06:24:38.869Z,5.00
2022-10-26T06:27:20.831Z,4.03
2022-10-26T06:29:57.536Z,7.07
2022-10-26T06:32:26.257Z,4.10
2022-10-26T06:35:14.618Z,4.70
2022-10-26T06:37:46.432Z,5.00
2022-10-26T06:40:17.542Z,5.10
2022-10-26T06:42:46.565Z,4.23
2022-10-26T06:45:19.636Z,4.10
2022-10-26T06:47:56.170Z,4.83
2022-10-26T06:50:35.834Z,4.03
2022-10-26T06:53:17.907Z,4.20
2022-10-26T06:55:49.766Z,5.03
2022-10-26T06:58:20.674Z,4.50
2022-10-26T07:00:51.367Z,4.73
2022-10-26T07:03:20.651Z,4.07
2022-10-26T07:05:50.861Z,4.10
2022-10-26T07:08:19.184Z,3.73
2022-10-26T07:10:48.467Z,4.27
2022-10-26T07:13:17.714Z,5.43
2022-10-26T07:15:46.560Z,3.77
2022-10-26T07:18:14.893Z,5.13
2022-10-26T07:20:43.898Z,3.40
2022-10-26T07:23:13.425Z,4.67
2022-10-26T07:25:42.395Z,8.20
2022-10-26T07:28:12.134Z,4.90
2022-10-26T07:30:41.157Z,3.97
2022-10-26T07:33:12.151Z,5.07
2022-10-26T07:35:40.937Z,4.60
2022-10-26T07:38:09.635Z,5.23
2022-10-26T07:40:39.366Z,4.37
2022-10-26T07:43:07.934Z,3.57
2022-10-26T07:45:36.749Z,4.03
2022-10-26T07:48:05.414Z,3.53
2022-10-26T07:50:33.664Z,5.37
2022-10-26T07:53:01.901Z,4.33
2022-10-26T07:55:30.149Z,4.63
2022-10-26T07:58:00.009Z,4.17
2022-10-26T08:00:29.897Z,3.00
2022-10-26T08:02:58.386Z,4.57
2022-10-26T08:05:26.798Z,3.43
2022-10-26T08:07:55.359Z,3.07
2022-10-26T08:10:23.616Z,4.00
2022-10-26T08:12:54.913Z,3.50
2022-10-26T08:15:24.545Z,2.63
2022-10-26T08:17:52.884Z,2.97
2022-10-26T08:20:21.586Z,4.07
2022-10-26T08:22:50.186Z,2.97
2022-10-26T08:25:21.246Z,3.60
2022-10-26T08:27:50.340Z,3.27
2022-10-26T08:30:19.027Z,2.13
2022-10-26T08:32:48.955Z,4.90
2022-10-26T08:35:17.517Z,2.50
2022-10-26T08:37:45.781Z,2.80
2022-10-26T08:40:17.920Z,2.80
2022-10-26T08:42:51.300Z,3.87
2022-10-26T08:45:31.665Z,2.33
2022-10-26T08:48:07.005Z,2.10
2022-10-26T08:50:42.914Z,2.53
2022-10-26T08:53:20.471Z,3.72
2022-10-26T08:55:54.566Z,2.28
2022-10-26T08:58:29.390Z,2.00
2022-10-26T09:00:57.593Z,3.45
2022-10-26T09:03:28.588Z,2.35
2022-10-26T09:06:23.982Z,1.88
2022-10-26T09:09:03.922Z,4.10
2022-10-26T09:11:52.713Z,3.60
2022-10-26T09:14:29.599Z,2.00
2022-10-26T09:17:10.049Z,5.25
2022-10-26T09:20:04.438Z,2.70
2022-10-26T09:22:44.155Z,1.95
2022-10-26T09:25:19.967Z,2.50
2022-10-26T09:27:51.875Z,3.42
2022-10-26T09:30:22.672Z,2.75
2022-10-26T09:32:54.479Z,2.95
2022-10-26T09:35:27.245Z,2.38
2022-10-26T09:37:59.598Z,2.72
2022-10-26T09:40:34.433Z,1.85
2022-10-26T09:43:07.982Z,2.08
2022-10-26T09:45:39.600Z,2.88
2022-10-26T09:48:16.212Z,1.90
2022-10-26T09:50:50.056Z,2.38
2022-10-26T09:53:18.180Z,1.92
2022-10-26T09:55:48.645Z,1.73
2022-10-26T09:58:25.235Z,2.35
2022-10-26T10:00:54.160Z,2.28
2022-10-26T10:03:26.842Z,1.83
2022-10-26T10:06:17.554Z,2.05
2022-10-26T10:09:06.241Z,2.33
2022-10-26T10:11:40.480Z,2.78
2022-10-26T10:14:10.916Z,1.98
2022-10-26T10:16:39.810Z,1.95
2022-10-26T10:19:23.363Z,1.70
2022-10-26T10:21:56.985Z,4.13
2022-10-26T10:24:29.351Z,1.27
2022-10-26T10:27:01.159Z,1.10
2022-10-26T10:29:30.933Z,1.80
2022-10-26T10:32:01.177Z,1.50
2022-10-26T10:34:32.851Z,0.95
2022-10-26T10:37:03.050Z,2.47
2022-10-26T10:39:49.520Z,1.67
2022-10-26T10:42:22.667Z,2.60
2022-10-26T10:44:55.639Z,1.40
2022-10-26T10:47:26.516Z,1.50
2022-10-26T10:49:58.593Z,1.67
2022-10-26T10:52:32.042Z,1.20
2022-10-26T10:55:18.273Z,1.88
2022-10-26T10:58:01.447Z,1.27
2022-10-26T11:00:33.566Z,0.63
2022-10-26T11:03:34.386Z,1.80
2022-10-26T11:06:11.125Z,1.40
2022-10-26T11:08:50.498Z,2.03
2022-10-26T11:11:23.667Z,2.53
2022-10-26T11:13:56.989Z,3.13
2022-10-26T11:16:30.898Z,2.67
2022-10-26T11:19:05.554Z,1.50
2022-10-26T11:21:38.690Z,1.42
2022-10-26T11:24:18.266Z,2.03
2022-10-26T11:26:54.045Z,1.95
2022-10-26T11:29:35.053Z,1.73
2022-10-26T11:32:16.747Z,1.98
2022-10-26T11:34:53.200Z,1.05
2022-10-26T11:37:29.085Z,1.92
2022-10-26T11:40:15.810Z,1.33
2022-10-26T11:42:50.529Z,1.58
2022-10-26T11:45:25.044Z,1.85
2022-10-26T11:47:57.147Z,3.08
2022-10-26T11:50:30.684Z,2.03
2022-10-26T11:53:04.511Z,1.63
2022-10-26T11:55:34.682Z,3.58
2022-10-26T11:58:03.981Z,1.40
2022-10-26T12:00:34.332Z,2.65
2022-10-26T12:03:09.793Z,1.67
2022-10-26T12:05:50.726Z,3.88
2022-10-26T12:08:25.741Z,2.13
2022-10-26T12:13:44.013Z,3.15
2022-10-26T12:16:23.095Z,2.05
2022-10-26T12:18:57.898Z,1.80
2022-10-26T12:21:29.549Z,2.38
2022-10-26T12:24:00.197Z,2.13
2022-10-26T12:26:55.462Z,2.70
2022-10-26T12:29:39.645Z,2.40
2022-10-26T12:32:51.825Z,1.90
2022-10-26T13:38:14.014Z,2.75
2022-10-26T13:40:44.775Z,2.10
2022-10-26T13:43:21.284Z,2.33
2022-10-26T13:45:56.177Z,2.30
2022-10-26T13:48:34.995Z,2.30
2022-10-26T13:51:08.925Z,4.65
2022-10-26T13:53:42.859Z,1.65
2022-10-26T13:56:23.725Z,1.67
2022-10-26T13:58:56.647Z,2.90
2022-10-26T14:01:30.477Z,2.10
2022-10-26T14:03:59.640Z,1.48
2022-10-26T14:06:35.708Z,3.35
2022-10-26T14:09:07.185Z,2.88
2022-10-26T14:11:45.225Z,2.35
2022-10-26T14:14:20.419Z,1.80
2022-10-26T14:16:50.808Z,2.13
2022-10-26T14:19:26.198Z,2.03
2022-10-26T14:21:55.359Z,1.30
2022-10-26T14:24:45.293Z,1.98
2022-10-26T14:27:18.275Z,1.98
2022-10-26T14:29:58.549Z,1.77
2022-10-26T14:32:36.718Z,2.55
2022-10-26T14:35:05.364Z,2.72
2022-10-26T14:37:43.057Z,1.80
2022-10-26T14:40:18.929Z,1.90
2022-10-26T14:42:52.388Z,2.90
2022-10-26T14:45:47.613Z,1.75
2022-10-26T14:48:25.019Z,1.30
2022-10-26T14:51:05.353Z,2.05
2022-10-26T14:53:38.354Z,1.85
2022-10-26T14:56:23.872Z,1.83
2022-10-26T14:58:54.312Z,1.38
2022-10-26T15:01:36.288Z,1.42
2022-10-26T15:04:07.614Z,2.00
2022-10-26T15:06:44.624Z,2.17
2022-10-26T15:09:40.969Z,1.33
2022-10-26T15:12:22.172Z,2.00
2022-10-26T15:14:52.758Z,2.53
2022-10-26T15:17:27.618Z,1.45
2022-10-26T15:19:57.832Z,2.97
2022-10-26T15:22:32.107Z,1.65
2022-10-26T15:25:03.714Z,2.35
2022-10-26T15:27:32.261Z,2.58
2022-10-26T15:30:24.534Z,1.70
2022-10-26T15:32:53.479Z,1.95
2022-10-26T15:35:40.000Z,0.90
2022-10-26T15:38:12.916Z,1.17
2022-10-26T15:40:44.727Z,1.33
2022-10-26T15:43:13.587Z,1.90
2022-10-26T15:45:49.056Z,2.22
2022-10-26T15:48:27.087Z,1.20
2022-10-26T15:50:55.493Z,2.08
2022-10-26T15:53:27.519Z,1.48
2022-10-26T15:55:57.898Z,1.23
2022-10-26T15:58:26.961Z,2.22
2022-10-26T16:00:56.657Z,1.52
2022-10-26T16:03:27.291Z,1.75
2022-10-26T16:05:59.762Z,1.73
2022-10-26T16:08:31.294Z,2.88
2022-10-26T16:10:59.567Z,1.55
2022-10-26T16:13:28.487Z,1.38
2022-10-26T16:15:58.727Z,2.53
2022-10-26T16:18:26.884Z,1.83
2022-10-26T16:20:55.092Z,1.42
2022-10-26T16:23:23.723Z,1.88
2022-10-26T16:25:52.017Z,1.20
2022-10-26T16:28:20.236Z,1.50
2022-10-26T16:30:48.478Z,2.42
2022-10-26T16:33:18.155Z,1.90
2022-10-26T16:35:46.280Z,3.28
2022-10-26T16:38:14.501Z,2.05
2022-10-26T16:40:45.015Z,1.40
2022-10-26T16:43:13.270Z,1.60
2022-10-26T16:45:42.611Z,2.00
2022-10-26T16:48:15.109Z,1.40
2022-10-26T16:50:44.758Z,2.22
2022-10-26T16:53:12.984Z,2.28
2022-10-26T16:58:09.638Z,2.70
2022-10-26T17:00:38.869Z,2.80
2022-10-26T17:03:07.078Z,2.17
2022-10-26T17:05:35.449Z,1.50
2022-10-26T17:08:05.162Z,2.22
2022-10-26T17:10:33.902Z,2.63
2022-10-26T17:13:03.785Z,1.80
2022-10-26T17:15:33.986Z,2.50
2022-10-26T17:18:02.366Z,2.38
2022-10-26T17:20:30.854Z,1.70
2022-10-26T17:22:59.039Z,2.42
2022-10-26T17:25:28.604Z,1.88
2022-10-26T17:27:57.190Z,2.63
2022-10-26T17:30:25.504Z,1.35
2022-10-26T17:32:53.843Z,4.03
2022-10-26T17:35:22.559Z,2.58
2022-10-26T17:37:50.903Z,3.97
2022-10-26T17:40:19.286Z,2.70
2022-10-26T17:42:48.819Z,2.95
2022-10-26T17:45:17.188Z,2.20
2022-10-26T17:47:45.523Z,2.10
2022-10-26T17:50:13.754Z,1.98
2022-10-26T17:52:41.997Z,3.75
2022-10-26T17:55:10.749Z,2.53
2022-10-26T17:57:38.966Z,3.05
2022-10-26T18:00:10.505Z,2.77
2022-10-26T18:02:40.130Z,3.07
2022-10-26T18:05:10.111Z,3.00
2022-10-26T18:07:38.279Z,2.10
2022-10-26T18:10:19.537Z,2.73
2022-10-26T18:12:54.232Z,2.80
2022-10-26T18:15:25.030Z,3.20
2022-10-26T18:17:58.183Z,3.27
2022-10-26T18:20:28.084Z,2.47
2022-10-26T18:22:57.814Z,2.20
2022-10-26T18:25:26.581Z,2.50
2022-10-26T18:27:55.108Z,3.90
2022-10-26T18:30:25.631Z,2.50
2022-10-26T18:32:54.621Z,2.43
2022-10-26T18:35:24.383Z,2.90
2022-10-26T18:37:53.155Z,2.60
2022-10-26T18:40:21.904Z,1.63
2022-10-26T18:42:50.377Z,2.00
2022-10-26T18:45:18.753Z,1.80
2022-10-26T18:47:48.560Z,2.00
2022-10-26T18:50:17.354Z,2.60
2022-10-26T18:52:46.047Z,1.53
2022-10-26T18:55:14.204Z,2.37
2022-10-26T18:57:42.507Z,2.13
2022-10-26T19:00:12.674Z,3.17
2022-10-26T19:02:40.963Z,1.67
2022-10-26T19:05:11.002Z,2.33
2022-10-26T19:07:40.146Z,2.90
2022-10-26T19:10:12.959Z,2.27
2022-10-26T19:12:41.300Z,1.83
2022-10-26T19:15:10.532Z,2.37
2022-10-26T19:17:39.933Z,2.23
2022-10-26T19:20:12.893Z,2.10
2022-10-26T19:22:41.109Z,2.10
2022-10-26T19:25:10.943Z,2.60
2022-10-26T19:27:39.353Z,2.90
2022-10-26T19:30:09.728Z,3.07
2022-10-26T19:32:39.962Z,1.90
2022-10-26T19:35:10.503Z,2.10
2022-10-26T19:37:38.670Z,2.30
2022-10-26T19:40:08.501Z,3.27
2022-10-26T19:42:42.718Z,2.17
2022-10-26T19:45:11.854Z,2.00
2022-10-26T19:47:40.137Z,4.40
2022-10-26T19:50:12.929Z,2.33
2022-10-26T19:52:42.006Z,2.03
2022-10-26T19:55:11.481Z,2.70
2022-10-26T19:57:46.116Z,3.07
2022-10-26T20:00:17.717Z,2.70
2022-10-26T20:02:46.097Z,2.03
2022-10-26T20:05:16.046Z,1.83
2022-10-26T20:07:44.340Z,2.67
2022-10-26T20:10:12.537Z,2.80
2022-10-26T20:12:40.835Z,1.33
2022-10-26T20:15:10.571Z,1.87
2022-10-26T20:17:43.539Z,1.30
2022-10-26T20:20:17.828Z,2.83
2022-10-26T20:22:46.276Z,2.83
2022-10-26T20:25:14.761Z,1.97
2022-10-26T20:27:45.193Z,2.13
2022-10-26T20:30:15.093Z,1.67
2022-10-26T20:32:43.307Z,2.00
2022-10-26T20:35:11.789Z,1.90
2022-10-26T20:37:42.798Z,2.10
2022-10-26T20:40:16.595Z,3.23
2022-10-26T20:42:45.884Z,2.27
2022-10-26T20:45:20.012Z,2.30
2022-10-26T20:47:49.506Z,2.93
2022-10-26T20:50:19.623Z,1.23
2022-10-26T20:52:56.254Z,3.50
2022-10-26T20:55:36.068Z,2.53
2022-10-26T20:58:07.763Z,2.37
2022-10-26T21:00:45.505Z,3.00
2022-10-26T21:03:13.798Z,2.27
2022-10-26T21:05:45.557Z,2.47
2022-10-26T21:08:15.337Z,2.97
2022-10-26T21:10:43.567Z,1.97
2022-10-26T21:13:11.694Z,2.70
2022-10-26T21:15:40.062Z,2.13
2022-10-26T21:18:08.316Z,1.67
2022-10-26T21:20:36.772Z,2.43
2022-10-26T21:23:05.223Z,2.20
2022-10-26T21:25:37.575Z,2.10
2022-10-26T21:28:07.826Z,2.43
2022-10-26T21:30:36.397Z,2.60
2022-10-26T21:33:04.717Z,2.07
2022-10-26T21:35:32.828Z,2.23
2022-10-26T21:38:01.004Z,1.87
2022-10-26T21:40:30.323Z,3.13
2022-10-26T21:42:59.837Z,1.87
2022-10-26T21:45:28.069Z,2.37
2022-10-26T21:47:56.248Z,2.23
2022-10-26T21:50:24.410Z,1.90
2022-10-26T21:52:54.363Z,1.83
2022-10-26T21:55:23.037Z,2.30
2022-10-26T21:57:54.454Z,1.83
2022-10-26T22:00:24.255Z,3.33
2022-10-26T22:02:53.478Z,3.73
2022-10-26T22:05:21.801Z,2.47
2022-10-26T22:07:50.260Z,2.13
2022-10-26T22:10:18.757Z,2.60
2022-10-26T22:12:46.971Z,3.27
2022-10-26T22:15:15.250Z,2.33
2022-10-26T22:17:45.293Z,2.40
2022-10-26T22:20:13.912Z,3.13
2022-10-26T22:22:42.081Z,1.90
2022-10-26T22:25:10.763Z,2.00
2022-10-26T22:27:38.917Z,2.27
2022-10-26T22:30:09.151Z,1.87
2022-10-26T22:32:37.322Z,1.63
2022-10-26T22:35:28.095Z,2.50
2022-10-26T22:37:56.241Z,2.10
2022-10-26T22:40:24.395Z,1.87
2022-10-26T22:42:53.069Z,2.63
2022-10-26T22:45:21.438Z,2.03
2022-10-26T22:47:49.694Z,1.73
2022-10-26T22:50:19.627Z,2.60
2022-10-26T22:52:48.268Z,2.10
2022-10-26T22:55:16.841Z,2.10
2022-10-26T22:57:45.057Z,2.80
2022-10-26T23:00:14.853Z,2.00
2022-10-26T23:02:43.215Z,3.93
2022-10-26T23:05:11.426Z,3.97
2022-10-26T23:07:40.984Z,3.43
2022-10-26T23:10:10.890Z,2.30
2022-10-26T23:12:39.796Z,1.73
2022-10-26T23:15:09.360Z,3.23
2022-10-26T23:17:37.530Z,1.90
2022-10-26T23:20:07.211Z,2.20
2022-10-26T23:22:35.550Z,2.83
2022-10-26T23:25:05.596Z,4.23
2022-10-26T23:27:33.991Z,2.00
2022-10-26T23:30:02.173Z,1.33
2022-10-26T23:32:30.554Z,2.33
2022-10-26T23:34:58.700Z,2.43
2022-10-26T23:37:27.046Z,1.90
2022-10-26T23:39:55.279Z,3.20
2022-10-26T23:42:24.841Z,1.77
2022-10-26T23:44:53.016Z,2.40
2022-10-26T23:47:21.261Z,3.47
2022-10-26T23:49:50.156Z,2.40
2022-10-26T23:52:18.391Z,2.53
2022-10-26T23:54:46.613Z,1.50
2022-10-26T23:57:14.853Z,2.10
2022-10-26T23:59:44.432Z,2.27
